createdAt,value
2023-05-20T00:00:06.319Z,450.00
2023-05-20T00:01:06.382Z,451.00
2023-05-20T00:02:06.390Z,451.00
2023-05-20T00:03:06.454Z,450.00
2023-05-20T00:04:06.645Z,450.00
2023-05-20T00:05:06.555Z,449.00
2023-05-20T00:06:06.566Z,447.00
2023-05-20T00:07:06.608Z,446.00
2023-05-20T00:08:06.666Z,447.00
2023-05-20T00:09:06.688Z,448.00
2023-05-20T00:10:06.751Z,446.00
2023-05-20T00:11:06.792Z,448.00
2023-05-20T00:12:06.806Z,448.00
2023-05-20T00:13:07.276Z,448.00
2023-05-20T00:14:06.911Z,449.00
2023-05-20T00:15:06.938Z,449.00
2023-05-20T00:16:07.036Z,448.00
2023-05-20T00:17:07.031Z,448.00
2023-05-20T00:18:07.117Z,449.00
2023-05-20T00:19:07.140Z,452.00
2023-05-20T00:20:07.135Z,452.00
2023-05-20T00:21:07.191Z,451.00
2023-05-20T00:22:07.258Z,451.00
2023-05-20T00:23:07.289Z,453.00
2023-05-20T00:24:07.339Z,453.00
2023-05-20T00:25:07.365Z,453.00
2023-05-20T00:26:07.404Z,452.00
2023-05-20T00:27:07.457Z,452.00
2023-05-20T00:28:07.499Z,450.00
2023-05-20T00:29:07.558Z,450.00
2023-05-20T00:30:07.577Z,448.00
2023-05-20T00:31:07.620Z,446.00
2023-05-20T00:32:07.745Z,447.00
2023-05-20T00:33:07.743Z,451.00
2023-05-20T00:34:07.759Z,452.00
2023-05-20T00:35:07.825Z,453.00
2023-05-20T00:36:07.837Z,453.00
2023-05-20T00:37:07.883Z,451.00
2023-05-20T00:38:07.916Z,452.00
2023-05-20T00:39:07.988Z,454.00
2023-05-20T00:40:08.086Z,453.00
2023-05-20T00:41:08.063Z,452.00
2023-05-20T00:42:08.099Z,453.00
2023-05-20T00:43:08.178Z,451.00
2023-05-20T00:44:08.176Z,449.00
2023-05-20T00:45:08.250Z,447.00
2023-05-20T00:46:08.322Z,448.00
2023-05-20T00:47:08.369Z,448.00
2023-05-20T00:48:08.485Z,445.00
2023-05-20T00:49:08.427Z,445.00
2023-05-20T00:50:08.515Z,444.00
2023-05-20T00:51:08.506Z,445.00
2023-05-20T00:52:08.554Z,446.00
2023-05-20T00:53:08.618Z,444.00
2023-05-20T00:54:08.643Z,446.00
2023-05-20T00:55:08.676Z,447.00
2023-05-20T00:56:08.700Z,448.00
2023-05-20T00:57:08.782Z,450.00
2023-05-20T00:58:08.843Z,450.00
2023-05-20T00:59:08.820Z,448.00
2023-05-20T01:00:08.860Z,448.00
2023-05-20T01:01:08.942Z,447.00
2023-05-20T01:02:09.005Z,448.00
2023-05-20T01:03:09.079Z,451.00
2023-05-20T01:04:09.049Z,452.00
2023-05-20T01:05:09.095Z,454.00
2023-05-20T01:06:09.133Z,452.00
2023-05-20T01:07:09.212Z,453.00
2023-05-20T01:08:09.239Z,455.00
2023-05-20T01:09:09.265Z,456.00
2023-05-20T01:10:09.300Z,456.00
2023-05-20T01:11:09.333Z,458.00
2023-05-20T01:12:09.399Z,459.00
2023-05-20T01:13:09.454Z,459.00
2023-05-20T01:14:09.458Z,461.00
2023-05-20T01:15:09.554Z,460.00
2023-05-20T01:16:09.623Z,459.00
2023-05-20T01:17:09.593Z,456.00
2023-05-20T01:18:09.651Z,455.00
2023-05-20T01:19:09.710Z,455.00
2023-05-20T01:20:09.745Z,454.00
2023-05-20T01:21:09.808Z,453.00
2023-05-20T01:22:09.851Z,449.00
2023-05-20T01:23:09.889Z,447.00
2023-05-20T01:24:09.947Z,446.00
2023-05-20T01:25:09.970Z,449.00
2023-05-20T01:26:10.052Z,449.00
2023-05-20T01:27:10.067Z,451.00
2023-05-20T01:28:10.124Z,453.00
2023-05-20T01:29:10.157Z,454.00
2023-05-20T01:30:10.216Z,456.00
2023-05-20T01:31:10.352Z,457.00
2023-05-20T01:32:10.301Z,458.00
2023-05-20T01:33:10.401Z,460.00
2023-05-20T01:34:10.361Z,458.00
2023-05-20T01:35:10.476Z,458.00
2023-05-20T01:36:10.482Z,458.00
2023-05-20T01:37:10.522Z,459.00
2023-05-20T01:38:10.569Z,457.00
2023-05-20T01:39:10.601Z,455.00
2023-05-20T01:40:10.661Z,456.00
2023-05-20T01:41:10.684Z,455.00
2023-05-20T01:42:10.724Z,455.00
2023-05-20T01:43:10.808Z,454.00
2023-05-20T01:44:10.875Z,454.00
2023-05-20T01:45:10.898Z,453.00
2023-05-20T01:46:10.983Z,453.00
2023-05-20T01:47:10.974Z,453.00
2023-05-20T01:48:11.029Z,455.00
2023-05-20T01:49:11.053Z,454.00
2023-05-20T01:50:11.131Z,453.00
2023-05-20T01:51:11.143Z,451.00
2023-05-20T01:52:11.208Z,452.00
2023-05-20T01:53:11.266Z,454.00
2023-05-20T01:54:11.304Z,456.00
2023-05-20T01:55:11.350Z,459.00
2023-05-20T01:56:11.394Z,459.00
2023-05-20T01:57:11.445Z,461.00
2023-05-20T01:58:11.496Z,460.00
2023-05-20T01:59:11.555Z,462.00
2023-05-20T02:00:11.577Z,461.00
2023-05-20T02:01:11.696Z,462.00
2023-05-20T02:02:11.697Z,460.00
2023-05-20T02:03:11.782Z,461.00
2023-05-20T02:04:11.788Z,462.00
2023-05-20T02:05:11.805Z,463.00
2023-05-20T02:06:11.895Z,460.00
2023-05-20T02:07:11.932Z,460.00
2023-05-20T02:08:11.935Z,459.00
2023-05-20T02:09:12.002Z,459.00
2023-05-20T02:10:12.051Z,460.00
2023-05-20T02:11:12.096Z,459.00
2023-05-20T02:12:12.126Z,457.00
2023-05-20T02:13:12.200Z,457.00
2023-05-20T02:14:12.240Z,456.00
2023-05-20T02:15:12.293Z,456.00
2023-05-20T02:16:12.460Z,456.00
2023-05-20T02:17:12.378Z,458.00
2023-05-20T02:18:12.574Z,459.00
2023-05-20T02:19:12.552Z,457.00
2023-05-20T02:20:12.553Z,457.00
2023-05-20T02:21:12.574Z,457.00
2023-05-20T02:22:12.648Z,457.00
2023-05-20T02:23:12.693Z,457.00
2023-05-20T02:24:12.740Z,458.00
2023-05-20T02:25:12.763Z,457.00
2023-05-20T02:26:12.832Z,459.00
2023-05-20T02:27:12.853Z,457.00
2023-05-20T02:28:13.376Z,458.00
2023-05-20T02:29:12.985Z,456.00
2023-05-20T02:30:13.015Z,459.00
2023-05-20T02:31:13.054Z,461.00
2023-05-20T02:32:13.103Z,461.00
2023-05-20T02:33:13.219Z,459.00
2023-05-20T02:34:13.261Z,460.00
2023-05-20T02:35:13.250Z,459.00
2023-05-20T02:36:13.296Z,460.00
2023-05-20T02:37:13.320Z,461.00
2023-05-20T02:38:13.389Z,458.00
2023-05-20T02:39:13.450Z,458.00
2023-05-20T02:40:13.513Z,460.00
2023-05-20T02:41:13.531Z,460.00
2023-05-20T02:42:13.579Z,459.00
2023-05-20T02:43:13.646Z,461.00
2023-05-20T02:44:13.698Z,460.00
2023-05-20T02:45:13.720Z,462.00
2023-05-20T02:46:13.840Z,464.00
2023-05-20T02:47:13.811Z,463.00
2023-05-20T02:48:13.883Z,462.00
2023-05-20T02:49:13.938Z,461.00
2023-05-20T02:50:13.968Z,460.00
2023-05-20T02:51:14.002Z,459.00
2023-05-20T02:52:14.043Z,461.00
2023-05-20T02:53:14.133Z,460.00
2023-05-20T02:54:14.143Z,461.00
2023-05-20T02:55:14.193Z,462.00
2023-05-20T02:56:14.244Z,463.00
2023-05-20T02:57:14.305Z,465.00
2023-05-20T02:58:14.331Z,464.00
2023-05-20T02:59:14.378Z,463.00
2023-05-20T03:00:14.452Z,462.00
2023-05-20T03:01:14.550Z,463.00
2023-05-20T03:02:14.509Z,465.00
2023-05-20T03:03:14.573Z,464.00
2023-05-20T03:04:14.638Z,464.00
2023-05-20T03:05:14.697Z,465.00
2023-05-20T03:06:14.737Z,466.00
2023-05-20T03:07:14.757Z,466.00
2023-05-20T03:08:14.805Z,467.00
2023-05-20T03:09:14.891Z,466.00
2023-05-20T03:10:15.878Z,466.00
2023-05-20T03:11:14.962Z,465.00
2023-05-20T03:12:15.011Z,464.00
2023-05-20T03:13:15.167Z,466.00
2023-05-20T03:14:15.134Z,467.00
2023-05-20T03:15:15.258Z,469.00
2023-05-20T03:16:15.271Z,469.00
2023-05-20T03:17:15.296Z,467.00
2023-05-20T03:18:15.339Z,465.00
2023-05-20T03:19:15.425Z,465.00
2023-05-20T03:20:15.456Z,465.00
2023-05-20T03:21:15.516Z,464.00
2023-05-20T03:22:15.551Z,465.00
2023-05-20T03:23:15.647Z,465.00
2023-05-20T03:24:15.671Z,465.00
2023-05-20T03:25:15.757Z,465.00
2023-05-20T03:26:15.782Z,466.00
2023-05-20T03:27:15.802Z,466.00
2023-05-20T03:28:15.870Z,466.00
2023-05-20T03:29:15.920Z,468.00
2023-05-20T03:30:15.988Z,469.00
2023-05-20T03:31:16.032Z,469.00
2023-05-20T03:32:16.099Z,471.00
2023-05-20T03:33:16.145Z,471.00
2023-05-20T03:34:16.213Z,471.00
2023-05-20T03:35:16.241Z,470.00
2023-05-20T03:36:16.332Z,472.00
2023-05-20T03:37:16.353Z,470.00
2023-05-20T03:38:16.418Z,468.00
2023-05-20T03:39:16.468Z,470.00
2023-05-20T03:40:16.537Z,473.00
2023-05-20T03:41:16.570Z,471.00
2023-05-20T03:42:16.608Z,470.00
2023-05-20T03:43:16.686Z,470.00
2023-05-20T03:44:16.709Z,471.00
2023-05-20T03:45:16.778Z,469.00
2023-05-20T03:46:16.888Z,471.00
2023-05-20T03:47:16.880Z,469.00
2023-05-20T03:48:16.979Z,470.00
2023-05-20T03:49:17.008Z,469.00
2023-05-20T03:50:17.008Z,468.00
2023-05-20T03:51:17.074Z,467.00
2023-05-20T03:52:17.163Z,468.00
2023-05-20T03:53:17.209Z,470.00
2023-05-20T03:54:17.270Z,469.00
2023-05-20T03:55:17.313Z,472.00
2023-05-20T03:56:17.363Z,473.00
2023-05-20T03:57:17.447Z,475.00
2023-05-20T03:58:17.487Z,475.00
2023-05-20T03:59:17.512Z,475.00
2023-05-20T04:00:17.575Z,477.00
2023-05-20T04:01:17.602Z,475.00
2023-05-20T04:02:17.784Z,474.00
2023-05-20T04:03:17.864Z,472.00
2023-05-20T04:04:17.870Z,472.00
2023-05-20T04:05:17.819Z,473.00
2023-05-20T04:06:17.909Z,471.00
2023-05-20T04:07:17.932Z,473.00
2023-05-20T04:08:18.382Z,470.00
2023-05-20T04:09:18.068Z,469.00
2023-05-20T04:10:18.105Z,467.00
2023-05-20T04:11:18.159Z,466.00
2023-05-20T04:12:18.222Z,468.00
2023-05-20T04:13:18.267Z,467.00
2023-05-20T04:14:18.331Z,467.00
2023-05-20T04:15:18.361Z,468.00
2023-05-20T04:16:18.436Z,468.00
2023-05-20T04:17:18.479Z,467.00
2023-05-20T04:18:18.536Z,466.00
2023-05-20T04:19:18.768Z,465.00
2023-05-20T04:20:18.639Z,465.00
2023-05-20T04:21:18.704Z,467.00
2023-05-20T04:22:18.755Z,467.00
2023-05-20T04:23:18.816Z,466.00
2023-05-20T04:24:18.860Z,466.00
2023-05-20T04:25:18.919Z,464.00
2023-05-20T04:26:18.965Z,462.00
2023-05-20T04:27:19.008Z,463.00
2023-05-20T04:28:19.103Z,464.00
2023-05-20T04:29:19.177Z,465.00
2023-05-20T04:30:19.197Z,466.00
2023-05-20T04:31:19.301Z,467.00
2023-05-20T04:32:19.287Z,467.00
2023-05-20T04:33:19.391Z,466.00
2023-05-20T04:34:19.419Z,466.00
2023-05-20T04:35:19.463Z,467.00
2023-05-20T04:36:19.498Z,469.00
2023-05-20T04:37:19.535Z,474.00
2023-05-20T04:38:19.636Z,475.00
2023-05-20T04:39:19.663Z,473.00
2023-05-20T04:40:19.739Z,473.00
2023-05-20T04:41:19.792Z,473.00
2023-05-20T04:42:19.828Z,472.00
2023-05-20T04:43:19.882Z,471.00
2023-05-20T04:44:19.932Z,471.00
2023-05-20T04:45:19.978Z,469.00
2023-05-20T04:46:20.066Z,470.00
2023-05-20T04:47:20.090Z,471.00
2023-05-20T04:48:20.136Z,469.00
2023-05-20T04:49:20.163Z,467.00
2023-05-20T04:50:20.219Z,467.00
2023-05-20T04:51:20.301Z,465.00
2023-05-20T04:52:20.338Z,465.00
2023-05-20T04:53:20.391Z,468.00
2023-05-20T04:54:20.458Z,467.00
2023-05-20T04:55:20.501Z,470.00
2023-05-20T04:56:20.581Z,473.00
2023-05-20T04:57:20.608Z,475.00
2023-05-20T04:58:20.701Z,475.00
2023-05-20T04:59:20.712Z,475.00
2023-05-20T05:00:20.778Z,476.00
2023-05-20T05:01:20.869Z,477.00
2023-05-20T05:02:20.875Z,476.00
2023-05-20T05:03:20.925Z,474.00
2023-05-20T05:04:20.999Z,472.00
2023-05-20T05:05:21.000Z,473.00
2023-05-20T05:06:21.086Z,472.00
2023-05-20T05:07:21.124Z,472.00
2023-05-20T05:08:21.213Z,473.00
2023-05-20T05:09:21.244Z,473.00
2023-05-20T05:10:21.286Z,473.00
2023-05-20T05:11:21.350Z,471.00
2023-05-20T05:12:21.388Z,472.00
2023-05-20T05:13:21.467Z,469.00
2023-05-20T05:14:21.480Z,469.00
2023-05-20T05:15:21.576Z,471.00
2023-05-20T05:16:21.623Z,473.00
2023-05-20T05:17:21.651Z,473.00
2023-05-20T05:18:21.743Z,472.00
2023-05-20T05:19:21.893Z,472.00
2023-05-20T05:20:21.811Z,472.00
2023-05-20T05:21:21.850Z,472.00
2023-05-20T05:22:21.927Z,474.00
2023-05-20T05:23:21.998Z,471.00
2023-05-20T05:24:22.001Z,472.00
2023-05-20T05:25:22.055Z,472.00
2023-05-20T05:26:22.124Z,471.00
2023-05-20T05:27:22.178Z,472.00
2023-05-20T05:28:22.219Z,471.00
2023-05-20T05:29:22.264Z,472.00
2023-05-20T05:30:22.309Z,474.00
2023-05-20T05:31:22.393Z,474.00
2023-05-20T05:32:22.480Z,476.00
2023-05-20T05:33:22.530Z,477.00
2023-05-20T05:34:22.538Z,475.00
2023-05-20T05:35:22.627Z,475.00
2023-05-20T05:36:22.635Z,474.00
2023-05-20T05:37:22.709Z,474.00
2023-05-20T05:38:22.732Z,474.00
2023-05-20T05:39:22.772Z,474.00
2023-05-20T05:40:22.833Z,473.00
2023-05-20T05:41:22.891Z,475.00
2023-05-20T05:42:22.900Z,475.00
2023-05-20T05:43:23.003Z,474.00
2023-05-20T05:44:23.084Z,473.00
2023-05-20T05:45:23.102Z,474.00
2023-05-20T05:46:23.180Z,473.00
2023-05-20T05:47:23.183Z,475.00
2023-05-20T05:48:23.350Z,472.00
2023-05-20T05:49:23.266Z,470.00
2023-05-20T05:50:23.340Z,469.00
2023-05-20T05:51:23.408Z,470.00
2023-05-20T05:52:23.464Z,469.00
2023-05-20T05:53:23.499Z,470.00
2023-05-20T05:54:23.558Z,470.00
2023-05-20T05:55:23.615Z,467.00
2023-05-20T05:56:23.680Z,467.00
2023-05-20T05:57:23.745Z,468.00
2023-05-20T05:58:23.811Z,470.00
2023-05-20T05:59:23.826Z,469.00
2023-05-20T06:00:23.873Z,471.00
2023-05-20T06:01:23.958Z,472.00
2023-05-20T06:02:24.073Z,475.00
2023-05-20T06:03:24.112Z,473.00
2023-05-20T06:04:24.180Z,472.00
2023-05-20T06:05:24.375Z,472.00
2023-05-20T06:06:24.169Z,472.00
2023-05-20T06:07:24.235Z,471.00
2023-05-20T06:08:24.263Z,472.00
2023-05-20T06:09:24.346Z,474.00
2023-05-20T06:10:24.418Z,475.00
2023-05-20T06:11:24.430Z,473.00
2023-05-20T06:12:24.479Z,472.00
2023-05-20T06:13:24.545Z,471.00
2023-05-20T06:14:24.594Z,468.00
2023-05-20T06:15:24.619Z,470.00
2023-05-20T06:16:24.827Z,468.00
2023-05-20T06:17:24.760Z,464.00
2023-05-20T06:18:24.782Z,463.00
2023-05-20T06:19:24.865Z,463.00
2023-05-20T06:20:24.898Z,464.00
2023-05-20T06:21:24.963Z,462.00
2023-05-20T06:22:24.978Z,464.00
2023-05-20T06:23:25.059Z,465.00
2023-05-20T06:24:25.099Z,467.00
2023-05-20T06:25:25.145Z,468.00
2023-05-20T06:26:25.183Z,470.00
2023-05-20T06:27:25.223Z,470.00
2023-05-20T06:28:25.301Z,469.00
2023-05-20T06:29:25.353Z,470.00
2023-05-20T06:30:25.380Z,471.00
2023-05-20T06:31:25.580Z,469.00
2023-05-20T06:32:25.535Z,469.00
2023-05-20T06:33:25.567Z,469.00
2023-05-20T06:34:25.607Z,470.00
2023-05-20T06:35:25.670Z,469.00
2023-05-20T06:36:25.713Z,470.00
2023-05-20T06:37:25.776Z,468.00
2023-05-20T06:38:25.846Z,469.00
2023-05-20T06:39:25.880Z,468.00
2023-05-20T06:40:25.933Z,468.00
2023-05-20T06:41:26.002Z,468.00
2023-05-20T06:42:26.102Z,470.00
2023-05-20T06:43:26.536Z,473.00
2023-05-20T06:44:26.119Z,472.00
2023-05-20T06:45:26.242Z,472.00
2023-05-20T06:46:26.323Z,472.00
2023-05-20T06:47:26.349Z,472.00
2023-05-20T06:48:26.449Z,473.00
2023-05-20T06:49:26.395Z,470.00
2023-05-20T06:50:26.496Z,471.00
2023-05-20T06:51:26.522Z,471.00
2023-05-20T06:52:26.595Z,473.00
2023-05-20T06:53:26.645Z,472.00
2023-05-20T06:54:26.674Z,469.00
2023-05-20T06:55:26.773Z,466.00
2023-05-20T06:56:26.820Z,466.00
2023-05-20T06:57:26.879Z,465.00
2023-05-20T06:58:26.942Z,465.00
2023-05-20T06:59:27.008Z,466.00
2023-05-20T07:00:27.060Z,466.00
2023-05-20T07:01:27.211Z,466.00
2023-05-20T07:02:27.236Z,466.00
2023-05-20T07:03:27.285Z,464.00
2023-05-20T07:04:27.338Z,464.00
2023-05-20T07:05:27.352Z,465.00
2023-05-20T07:06:27.437Z,466.00
2023-05-20T07:07:27.474Z,464.00
2023-05-20T07:08:27.555Z,464.00
2023-05-20T07:09:27.631Z,462.00
2023-05-20T07:10:27.787Z,464.00
2023-05-20T07:11:27.709Z,462.00
2023-05-20T07:12:27.773Z,464.00
2023-05-20T07:13:27.858Z,466.00
2023-05-20T07:14:27.886Z,466.00
2023-05-20T07:15:27.977Z,464.00
2023-05-20T07:16:28.079Z,463.00
2023-05-20T07:17:28.186Z,463.00
2023-05-20T07:18:28.199Z,464.00
2023-05-20T07:19:28.250Z,465.00
2023-05-20T07:20:28.298Z,465.00
2023-05-20T07:21:28.361Z,464.00
2023-05-20T07:22:28.376Z,465.00
2023-05-20T07:23:28.465Z,466.00
2023-05-20T07:24:28.503Z,467.00
2023-05-20T07:25:28.575Z,467.00
2023-05-20T07:26:28.665Z,468.00
2023-05-20T07:27:28.704Z,468.00
2023-05-20T07:28:28.783Z,469.00
2023-05-20T07:29:28.855Z,467.00
2023-05-20T07:30:28.893Z,469.00
2023-05-20T07:31:28.992Z,467.00
2023-05-20T07:32:29.039Z,465.00
2023-05-20T07:33:29.035Z,468.00
2023-05-20T07:34:29.127Z,469.00
2023-05-20T07:35:29.160Z,471.00
2023-05-20T07:36:29.233Z,470.00
2023-05-20T07:37:29.304Z,471.00
2023-05-20T07:38:29.505Z,471.00
2023-05-20T07:39:29.381Z,472.00
2023-05-20T07:40:29.447Z,470.00
2023-05-20T07:41:29.534Z,471.00
2023-05-20T07:42:29.587Z,473.00
2023-05-20T07:43:29.592Z,473.00
2023-05-20T07:44:29.631Z,472.00
2023-05-20T07:45:29.680Z,470.00
2023-05-20T07:46:29.945Z,471.00
2023-05-20T07:47:29.803Z,470.00
2023-05-20T07:48:29.801Z,471.00
2023-05-20T07:49:29.891Z,470.00
2023-05-20T07:50:29.910Z,471.00
2023-05-20T07:51:29.940Z,469.00
2023-05-20T07:52:30.996Z,470.00
2023-05-20T07:53:30.003Z,469.00
2023-05-20T07:54:29.985Z,468.00
2023-05-20T07:55:29.965Z,467.00
2023-05-20T07:56:29.951Z,468.00
2023-05-20T07:57:29.955Z,468.00
2023-05-20T07:58:30.045Z,468.00
2023-05-20T07:59:29.920Z,469.00
2023-05-20T08:00:29.915Z,468.00
2023-05-20T08:01:29.935Z,468.00
2023-05-20T08:02:30.039Z,466.00
2023-05-20T08:03:30.157Z,465.00
2023-05-20T08:04:29.972Z,466.00
2023-05-20T08:05:29.896Z,465.00
2023-05-20T08:06:30.117Z,469.00
2023-05-20T08:07:29.882Z,471.00
2023-05-20T08:08:29.863Z,473.00
2023-05-20T08:09:29.883Z,474.00
2023-05-20T08:10:29.845Z,475.00
2023-05-20T08:11:29.898Z,475.00
2023-05-20T08:12:29.846Z,475.00
2023-05-20T08:13:29.841Z,474.00
2023-05-20T08:14:29.821Z,476.00
2023-05-20T08:15:29.823Z,477.00
2023-05-20T08:16:29.882Z,476.00
2023-05-20T08:17:29.816Z,475.00
2023-05-20T08:18:29.859Z,475.00
2023-05-20T08:19:29.898Z,473.00
2023-05-20T08:20:29.793Z,472.00
2023-05-20T08:21:29.775Z,471.00
2023-05-20T08:22:29.761Z,467.00
2023-05-20T08:23:29.769Z,466.00
2023-05-20T08:24:29.760Z,465.00
2023-05-20T08:25:29.737Z,466.00
2023-05-20T08:26:29.712Z,464.00
2023-05-20T08:27:29.719Z,465.00
2023-05-20T08:28:29.753Z,464.00
2023-05-20T08:29:29.740Z,465.00
2023-05-20T08:30:29.785Z,465.00
2023-05-20T08:31:29.908Z,462.00
2023-05-20T08:32:29.906Z,461.00
2023-05-20T08:33:29.898Z,460.00
2023-05-20T08:34:29.919Z,459.00
2023-05-20T08:35:29.997Z,459.00
2023-05-20T08:36:30.039Z,460.00
2023-05-20T08:37:30.065Z,460.00
2023-05-20T08:38:30.116Z,460.00
2023-05-20T08:39:30.162Z,459.00
2023-05-20T08:40:30.162Z,458.00
2023-05-20T08:41:30.212Z,459.00
2023-05-20T08:42:30.268Z,460.00
2023-05-20T08:43:30.312Z,457.00
2023-05-20T08:44:30.360Z,460.00
2023-05-20T08:45:30.385Z,462.00
2023-05-20T08:46:30.465Z,462.00
2023-05-20T08:47:30.460Z,462.00
2023-05-20T08:48:30.502Z,461.00
2023-05-20T08:49:30.525Z,461.00
2023-05-20T08:50:30.571Z,460.00
2023-05-20T08:51:30.615Z,462.00
2023-05-20T08:52:30.669Z,462.00
2023-05-20T08:53:30.698Z,462.00
2023-05-20T08:54:30.722Z,466.00
2023-05-20T08:55:30.779Z,466.00
2023-05-20T08:56:31.199Z,465.00
2023-05-20T08:57:30.879Z,463.00
2023-05-20T08:58:30.936Z,463.00
2023-05-20T08:59:30.965Z,465.00
2023-05-20T09:00:30.996Z,467.00
2023-05-20T09:01:31.046Z,468.00
2023-05-20T09:02:31.178Z,467.00
2023-05-20T09:03:31.154Z,467.00
2023-05-20T09:04:31.163Z,466.00
2023-05-20T09:05:31.262Z,467.00
2023-05-20T09:06:31.245Z,467.00
2023-05-20T09:07:31.299Z,466.00
2023-05-20T09:08:31.307Z,465.00
2023-05-20T09:09:31.362Z,465.00
2023-05-20T09:10:31.397Z,466.00
2023-05-20T09:11:31.452Z,466.00
2023-05-20T09:12:31.482Z,464.00
2023-05-20T09:13:31.512Z,463.00
2023-05-20T09:14:31.534Z,465.00
2023-05-20T09:15:31.704Z,465.00
2023-05-20T09:16:31.688Z,466.00
2023-05-20T09:17:31.694Z,466.00
2023-05-20T09:18:31.759Z,468.00
2023-05-20T09:19:31.853Z,469.00
2023-05-20T09:20:31.849Z,472.00
2023-05-20T09:21:31.874Z,471.00
2023-05-20T09:22:31.926Z,472.00
2023-05-20T09:23:31.994Z,472.00
2023-05-20T09:24:32.073Z,472.00
2023-05-20T09:25:32.283Z,473.00
2023-05-20T09:26:32.115Z,475.00
2023-05-20T09:27:32.163Z,474.00
2023-05-20T09:28:32.208Z,472.00
2023-05-20T09:29:32.239Z,473.00
2023-05-20T09:30:32.305Z,472.00
2023-05-20T09:31:32.425Z,472.00
2023-05-20T09:32:32.466Z,473.00
2023-05-20T09:33:32.521Z,473.00
2023-05-20T09:34:32.580Z,471.00
2023-05-20T09:35:32.680Z,470.00
2023-05-20T09:36:32.633Z,469.00
2023-05-20T09:37:32.682Z,469.00
2023-05-20T09:38:32.721Z,469.00
2023-05-20T09:39:32.756Z,465.00
2023-05-20T09:40:32.822Z,467.00
2023-05-20T09:41:32.867Z,466.00
2023-05-20T09:42:32.917Z,465.00
2023-05-20T09:43:32.934Z,464.00
2023-05-20T09:44:33.000Z,461.00
2023-05-20T09:45:33.269Z,458.00
2023-05-20T09:46:33.191Z,456.00
2023-05-20T09:47:33.139Z,454.00
2023-05-20T09:48:34.217Z,453.00
2023-05-20T09:49:33.214Z,455.00
2023-05-20T09:50:33.233Z,455.00
2023-05-20T09:51:33.266Z,454.00
2023-05-20T09:52:33.308Z,454.00
2023-05-20T09:53:33.350Z,456.00
2023-05-20T09:54:33.402Z,458.00
2023-05-20T09:55:33.912Z,459.00
2023-05-20T09:56:33.507Z,460.00
2023-05-20T09:57:33.521Z,458.00
2023-05-20T09:58:33.596Z,457.00
2023-05-20T09:59:33.639Z,457.00
2023-05-20T10:00:33.658Z,456.00
2023-05-20T10:01:33.743Z,459.00
2023-05-20T10:02:33.809Z,461.00
2023-05-20T10:03:33.877Z,463.00
2023-05-20T10:04:33.857Z,464.00
2023-05-20T10:05:34.050Z,463.00
2023-05-20T10:06:33.931Z,462.00
2023-05-20T10:07:41.822Z,461.00
2023-05-20T10:08:35.104Z,461.00
2023-05-20T10:09:33.952Z,462.00
2023-05-20T10:10:33.935Z,462.00
2023-05-20T10:11:33.950Z,463.00
2023-05-20T10:12:33.910Z,464.00
2023-05-20T10:13:33.916Z,464.00
2023-05-20T10:14:33.893Z,463.00
2023-05-20T10:15:34.134Z,463.00
2023-05-20T10:16:33.858Z,462.00
2023-05-20T10:17:33.878Z,462.00
2023-05-20T10:18:33.871Z,460.00
2023-05-20T10:19:33.894Z,460.00
2023-05-20T10:20:33.918Z,461.00
2023-05-20T10:21:33.997Z,462.00
2023-05-20T10:22:34.016Z,460.00
2023-05-20T10:23:34.066Z,462.00
2023-05-20T10:24:34.093Z,464.00
2023-05-20T10:25:34.263Z,466.00
2023-05-20T10:26:34.139Z,466.00
2023-05-20T10:27:34.180Z,464.00
2023-05-20T10:28:34.173Z,463.00
2023-05-20T10:29:34.221Z,461.00
2023-05-20T10:30:34.374Z,461.00
2023-05-20T10:31:34.306Z,461.00
2023-05-20T10:32:34.417Z,462.00
2023-05-20T10:33:34.410Z,462.00
2023-05-20T10:34:34.390Z,464.00
2023-05-20T10:35:34.448Z,463.00
2023-05-20T10:36:34.480Z,463.00
2023-05-20T10:37:34.520Z,464.00
2023-05-20T10:38:34.557Z,464.00
2023-05-20T10:39:34.610Z,464.00
2023-05-20T10:40:34.816Z,464.00
2023-05-20T10:41:34.613Z,466.00
2023-05-20T10:42:34.703Z,466.00
2023-05-20T10:43:34.704Z,464.00
2023-05-20T10:44:34.736Z,465.00
2023-05-20T10:45:34.775Z,464.00
2023-05-20T10:46:48.660Z,464.00
2023-05-20T10:47:35.926Z,464.00
2023-05-20T10:48:34.909Z,464.00
2023-05-20T10:49:34.780Z,464.00
2023-05-20T10:50:35.051Z,465.00
2023-05-20T10:51:34.765Z,465.00
2023-05-20T10:52:34.779Z,465.00
2023-05-20T10:53:34.890Z,464.00
2023-05-20T10:54:34.704Z,465.00
2023-05-20T10:55:34.716Z,466.00
2023-05-20T10:56:34.725Z,468.00
2023-05-20T10:57:34.714Z,470.00
2023-05-20T10:58:34.782Z,468.00
2023-05-20T10:59:34.705Z,468.00
2023-05-20T11:00:34.857Z,467.00
2023-05-20T11:01:34.740Z,467.00
2023-05-20T11:02:34.720Z,464.00
2023-05-20T11:03:34.857Z,465.00
2023-05-20T11:04:35.142Z,463.00
2023-05-20T11:05:34.790Z,463.00
2023-05-20T11:06:34.793Z,466.00
2023-05-20T11:07:34.799Z,467.00
2023-05-20T11:08:34.822Z,468.00
2023-05-20T11:09:34.866Z,470.00
2023-05-20T11:10:35.127Z,467.00
2023-05-20T11:11:34.928Z,469.00
2023-05-20T11:12:34.991Z,470.00
2023-05-20T11:13:34.981Z,469.00
2023-05-20T11:14:34.998Z,468.00
2023-05-20T11:15:35.073Z,470.00
2023-05-20T11:16:35.154Z,467.00
2023-05-20T11:17:35.125Z,468.00
2023-05-20T11:18:35.126Z,466.00
2023-05-20T11:19:35.147Z,464.00
2023-05-20T11:20:35.353Z,465.00
2023-05-20T11:21:35.195Z,466.00
2023-05-20T11:22:35.217Z,467.00
2023-05-20T11:23:35.260Z,468.00
2023-05-20T11:24:35.328Z,469.00
2023-05-20T11:25:35.314Z,469.00
2023-05-20T11:26:35.336Z,468.00
2023-05-20T11:27:35.351Z,468.00
2023-05-20T11:28:35.400Z,468.00
2023-05-20T11:29:35.453Z,469.00
2023-05-20T11:30:35.682Z,470.00
2023-05-20T11:31:35.549Z,471.00
2023-05-20T11:32:35.586Z,471.00
2023-05-20T11:33:35.546Z,470.00
2023-05-20T11:34:35.606Z,470.00
2023-05-20T11:35:35.610Z,469.00
2023-05-20T11:36:35.673Z,467.00
2023-05-20T11:37:35.664Z,467.00
2023-05-20T11:38:35.644Z,468.00
2023-05-20T11:39:36.140Z,467.00
2023-05-20T11:40:46.402Z,468.00
2023-05-20T11:41:36.700Z,467.00
2023-05-20T11:42:35.700Z,466.00
2023-05-20T11:43:35.693Z,466.00
2023-05-20T11:44:35.719Z,465.00
2023-05-20T11:45:35.665Z,464.00
2023-05-20T11:46:35.794Z,465.00
2023-05-20T11:47:35.682Z,466.00
2023-05-20T11:48:35.656Z,464.00
2023-05-20T11:49:35.642Z,465.00
2023-05-20T11:50:35.791Z,464.00
2023-05-20T11:51:35.614Z,466.00
2023-05-20T11:52:35.605Z,465.00
2023-05-20T11:53:35.621Z,466.00
2023-05-20T11:54:35.640Z,463.00
2023-05-20T11:55:35.592Z,463.00
2023-05-20T11:56:35.609Z,463.00
2023-05-20T11:57:35.604Z,466.00
2023-05-20T11:58:35.628Z,465.00
2023-05-20T11:59:35.674Z,465.00
2023-05-20T12:00:49.399Z,466.00
2023-05-20T12:01:36.672Z,466.00
2023-05-20T12:02:35.802Z,466.00
2023-05-20T12:03:35.762Z,469.00
2023-05-20T12:04:35.690Z,467.00
2023-05-20T12:05:35.646Z,466.00
2023-05-20T12:06:35.651Z,465.00
2023-05-20T12:07:35.643Z,467.00
2023-05-20T12:08:35.615Z,468.00
2023-05-20T12:09:35.644Z,466.00
2023-05-20T12:10:35.773Z,467.00
2023-05-20T12:11:35.640Z,467.00
2023-05-20T12:12:35.609Z,463.00
2023-05-20T12:13:35.855Z,464.00
2023-05-20T12:14:35.591Z,464.00
2023-05-20T12:15:35.610Z,463.00
2023-05-20T12:16:35.679Z,461.00
2023-05-20T12:17:35.676Z,459.00
2023-05-20T12:18:35.622Z,460.00
2023-05-20T12:19:36.675Z,460.00
2023-05-20T12:20:35.744Z,461.00
2023-05-20T12:21:35.554Z,462.00
2023-05-20T12:22:35.616Z,464.00
2023-05-20T12:23:35.588Z,464.00
2023-05-20T12:24:35.680Z,465.00
2023-05-20T12:25:35.651Z,465.00
2023-05-20T12:26:35.762Z,464.00
2023-05-20T12:27:35.707Z,463.00
2023-05-20T12:28:35.723Z,464.00